Time;durP1;ratioP1;P1;durP2;ratioP2;P2;SDS_P1;SDS_P2;PMS_P1;PMS_P2;Temp;Humidity;BMP_temperature;BMP_pressure;BME280_temperature;BME280_humidity;BME280_pressure;Samples;Min_cycle;Max_cycle;Signal;HPM_P1;HPM_P2
2023/08/14 00:00:16;;;;;;;11.93;8.60;;;19.60;99.90;;;19.44;72.91;100982.28;5054018;28;20297;-74
2023/08/14 00:02:48;;;;;;;12.97;9.23;;;19.60;99.90;;;19.33;72.92;100970.16;5053980;28;20267;-74
2023/08/14 00:05:22;;;;;;;14.73;9.97;;;19.50;99.90;;;19.29;73.16;100973.47;5053908;28;20281;-74
2023/08/14 00:07:54;;;;;;;14.90;9.90;;;19.50;99.90;;;19.28;73.24;100971.84;5053913;28;20225;-74
2023/08/14 00:10:26;;;;;;;13.30;7.80;;;19.50;99.90;;;19.19;73.29;100968.50;5053898;28;20287;-74
2023/08/14 00:12:58;;;;;;;11.43;6.53;;;19.40;99.90;;;19.08;73.85;100966.41;5053427;28;20264;-74
2023/08/14 00:15:30;;;;;;;6.90;5.40;;;19.30;99.90;;;19.18;73.82;100961.38;5054472;28;20251;-74
2023/08/14 00:18:02;;;;;;;8.93;4.90;;;19.40;99.90;;;19.15;73.34;100961.81;5053783;28;20213;-74
2023/08/14 00:20:35;;;;;;;5.73;4.37;;;19.40;99.90;;;19.09;73.59;100973.53;5054530;28;20210;-74
2023/08/14 00:23:08;;;;;;;5.37;4.10;;;19.30;99.90;;;19.07;73.73;100967.47;5053605;28;20233;-74
2023/08/14 00:25:40;;;;;;;7.30;4.00;;;19.20;99.90;;;19.07;73.59;100970.19;5053885;28;20281;-74
2023/08/14 00:28:12;;;;;;;6.90;4.10;;;19.30;99.90;;;18.98;73.44;100977.69;5053289;28;20527;-74
2023/08/14 00:30:44;;;;;;;5.63;3.70;;;19.20;99.90;;;19.00;73.93;100972.06;5053598;28;20312;-74
2023/08/14 00:33:16;;;;;;;5.87;3.50;;;19.20;99.90;;;18.99;74.40;100978.53;5053509;28;20229;-74
2023/08/14 00:35:49;;;;;;;6.17;3.43;;;19.20;99.90;;;19.04;74.12;100978.75;5053545;28;20300;-74
2023/08/14 00:38:21;;;;;;;4.53;3.43;;;19.30;99.90;;;19.03;74.01;100974.38;5053482;28;20281;-74
2023/08/14 00:40:53;;;;;;;6.73;3.57;;;19.20;99.90;;;18.99;74.03;100975.81;5053087;28;20696;-74
2023/08/14 00:43:24;;;;;;;7.27;3.43;;;19.20;99.90;;;18.89;73.87;100975.41;5053472;28;20249;-74
2023/08/14 00:46:00;;;;;;;4.43;3.20;;;19.10;99.90;;;18.88;74.43;100979.16;5053322;28;20233;-74
2023/08/14 00:48:32;;;;;;;11.10;3.57;;;19.10;99.90;;;18.88;74.16;100977.28;5053421;28;20280;-73
2023/08/14 00:51:05;;;;;;;5.03;3.60;;;19.20;99.90;;;18.83;74.32;100968.09;5053543;28;20208;-73
2023/08/14 00:53:38;;;;;;;3.77;3.00;;;19.10;99.90;;;18.88;74.07;100977.28;5053339;28;20253;-74
2023/08/14 00:56:10;;;;;;;5.43;3.60;;;19.20;99.90;;;18.87;74.05;100977.50;5053320;28;20198;-74
2023/08/14 00:58:42;;;;;;;6.73;3.70;;;19.20;99.90;;;18.86;74.00;100979.38;5053175;28;20723;-73
2023/08/14 01:01:13;;;;;;;6.27;3.73;;;19.20;99.90;;;18.73;74.14;100980.19;5057534;28;20224;-73
2023/08/14 01:03:47;;;;;;;6.47;3.90;;;19.00;99.90;;;18.54;74.25;100978.31;5057410;28;20234;-73
2023/08/14 01:06:20;;;;;;;5.07;3.50;;;19.00;99.90;;;18.48;75.14;100970.97;5057097;28;20225;-74
2023/08/14 01:08:52;;;;;;;5.03;3.30;;;18.60;99.90;;;18.51;74.68;100965.16;5057262;28;20274;-73
2023/08/14 01:11:35;;;;;;;5.23;3.70;;;18.70;99.90;;;18.45;75.52;100970.53;5057188;28;20196;-74
2023/08/14 01:14:18;;;;;;;6.70;3.67;;;18.60;99.90;;;18.45;75.18;100968.66;5056859;28;20786;-74
2023/08/14 01:16:59;;;;;;;6.03;3.87;;;18.70;99.90;;;18.45;74.89;100962.41;5057132;28;20273;-74
2023/08/14 01:19:35;;;;;;;4.73;3.30;;;18.70;99.90;;;18.48;74.71;100970.13;5056983;28;20217;-74
2023/08/14 01:22:17;;;;;;;3.87;3.27;;;18.80;99.90;;;18.47;74.30;100961.16;5057069;28;20201;-74
2023/08/14 01:25:03;;;;;;;7.50;3.30;;;18.80;99.90;;;18.34;74.47;100965.72;5057458;28;20233;-74
2023/08/14 01:27:35;;;;;;;4.17;3.23;;;18.60;99.90;;;18.29;74.70;100974.44;5057735;28;20194;-74
2023/08/14 01:30:10;;;;;;;6.17;3.37;;;18.50;99.90;;;18.23;75.45;100961.72;5056592;28;20561;-74
2023/08/14 01:32:41;;;;;;;5.43;3.40;;;18.40;99.90;;;18.18;75.69;100959.63;5057224;28;20279;-74
2023/08/14 01:35:16;;;;;;;8.73;3.43;;;18.50;99.90;;;18.18;75.85;100953.41;5056858;28;20261;-74
2023/08/14 01:37:57;;;;;;;6.20;3.30;;;18.40;99.90;;;18.23;75.66;100961.72;5056726;28;20285;-74
2023/08/14 01:40:40;;;;;;;4.93;3.30;;;18.50;99.90;;;18.28;75.00;100963.84;5056655;28;20210;-74
2023/08/14 01:43:20;;;;;;;4.53;3.27;;;18.60;99.90;;;18.15;75.31;100965.44;5056594;28;20257;-74
2023/08/14 01:45:55;;;;;;;6.90;3.87;;;18.40;99.90;;;18.09;75.58;100971.69;5056558;28;20265;-74
2023/08/14 01:48:29;;;;;;;7.37;3.23;;;18.30;99.90;;;18.18;76.03;100966.94;5056566;28;20194;-74
2023/08/14 01:51:03;;;;;;;7.67;3.63;;;18.50;99.90;;;18.21;74.90;100958.41;5056441;28;20209;-74
2023/08/14 01:53:38;;;;;;;7.37;3.63;;;18.50;99.90;;;18.11;74.89;100968.78;5056400;28;20226;-74
2023/08/14 01:56:11;;;;;;;4.80;3.57;;;18.40;99.90;;;17.94;75.96;100957.50;5056436;28;20292;-74
2023/08/14 01:58:43;;;;;;;7.43;3.50;;;18.10;99.90;;;17.98;75.65;100957.91;5056373;28;20619;-74
2023/08/14 02:01:15;;;;;;;7.63;4.20;;;18.20;99.90;;;18.04;75.75;100948.97;5055948;28;20648;-74
2023/08/14 02:03:47;;;;;;;6.77;3.77;;;18.40;99.90;;;18.05;75.84;100945.19;5056198;28;20275;-74
2023/08/14 02:06:19;;;;;;;7.17;3.90;;;18.30;99.90;;;18.06;75.67;100944.16;5056189;28;20191;-74
2023/08/14 02:08:51;;;;;;;7.03;4.03;;;18.40;99.90;;;17.99;76.05;100938.72;5055879;28;20637;-74
2023/08/14 02:11:24;;;;;;;5.07;3.60;;;18.30;99.90;;;17.90;77.24;100934.56;5055547;28;20186;-74
2023/08/14 02:13:56;;;;;;;5.27;3.80;;;18.20;99.90;;;17.88;77.52;100930.34;5055741;28;20795;-74
2023/08/14 02:16:28;;;;;;;5.33;3.53;;;18.10;99.90;;;17.83;77.94;100922.00;5055898;28;20203;-74
2023/08/14 02:19:00;;;;;;;6.40;3.53;;;18.10;99.90;;;17.84;77.12;100923.69;5056211;28;20229;-74
2023/08/14 02:21:32;;;;;;;6.63;3.70;;;18.10;99.90;;;17.89;77.94;100919.31;5055786;28;20260;-74
2023/08/14 02:24:04;;;;;;;4.93;3.83;;;18.20;99.90;;;17.89;77.43;100921.19;5055757;28;20569;-72
2023/08/14 02:26:37;;;;;;;7.03;3.77;;;18.20;99.90;;;17.78;77.40;100922.63;5055797;28;20195;-72
2023/08/14 02:29:09;;;;;;;6.07;3.83;;;18.10;99.90;;;17.79;77.41;100923.44;5055426;28;20635;-73
2023/08/14 02:31:45;;;;;;;6.83;3.67;;;18.10;99.90;;;17.79;76.99;100915.31;5055976;28;20205;-74
2023/08/14 02:34:42;;;;;;;6.23;3.93;;;18.10;99.90;;;17.86;77.75;100917.03;5055175;28;20229;-74
2023/08/14 02:37:16;;;;;;;6.57;4.00;;;18.20;99.90;;;17.81;79.07;100919.50;5055826;28;20590;-74
2023/08/14 02:39:49;;;;;;;4.67;3.90;;;18.10;99.90;;;17.73;78.57;100923.25;5055662;28;20198;-73
2023/08/14 02:42:23;;;;;;;5.47;4.00;;;18.00;99.90;;;17.71;78.97;100919.88;5055405;28;20293;-73
2023/08/14 02:44:55;;;;;;;5.03;3.63;;;18.00;99.90;;;17.69;79.19;100929.25;5055482;28;20191;-73
2023/08/14 02:47:28;;;;;;;7.50;3.50;;;18.00;99.90;;;17.65;78.89;100922.56;5054605;28;20683;-74
2023/08/14 02:50:00;;;;;;;7.27;4.37;;;17.90;99.90;;;17.66;79.05;100921.53;5055648;28;20194;-74
2023/08/14 02:52:32;;;;;;;6.37;4.03;;;18.00;99.90;;;17.62;79.52;100915.69;5055019;28;20234;-74
2023/08/14 02:55:04;;;;;;;7.03;4.27;;;17.90;99.90;;;17.59;79.92;100924.22;5055315;28;20247;-74
2023/08/14 02:57:37;;;;;;;6.87;3.97;;;17.90;99.90;;;17.55;79.55;100920.22;5055275;28;20186;-74
2023/08/14 03:00:10;;;;;;;6.23;4.40;;;17.90;99.90;;;17.52;79.88;100928.72;5055168;28;20214;-74
2023/08/14 03:02:42;;;;;;;9.53;4.63;;;17.90;99.90;;;17.58;80.73;100919.84;5055076;28;20400;-74
2023/08/14 03:05:14;;;;;;;8.77;4.00;;;17.90;99.90;;;17.49;80.23;100917.47;5054740;28;20628;-74
2023/08/14 03:07:46;;;;;;;7.43;4.53;;;17.80;99.90;;;17.48;80.70;100922.03;5055055;28;20236;-73
2023/08/14 03:10:18;;;;;;;9.40;4.43;;;17.80;99.90;;;17.50;81.35;100911.84;5055028;28;20269;-73
2023/08/14 03:12:51;;;;;;;9.33;4.70;;;17.90;99.90;;;17.51;80.55;100926.22;5055045;28;20229;-73
2023/08/14 03:15:23;;;;;;;7.47;4.43;;;17.80;99.90;;;17.45;81.17;100917.03;5054891;28;20194;-73
2023/08/14 03:17:55;;;;;;;7.33;4.73;;;17.80;99.90;;;17.41;80.99;100918.47;5054882;28;20564;-74
2023/08/14 03:20:27;;;;;;;8.07;5.03;;;17.70;99.90;;;17.39;81.22;100915.13;5054650;28;20277;-73
2023/08/14 03:22:59;;;;;;;6.43;4.67;;;17.70;99.90;;;17.35;81.72;100911.16;5053980;28;20802;-73
2023/08/14 03:25:31;;;;;;;7.93;4.67;;;17.70;99.90;;;17.34;82.14;100905.94;5054636;28;20212;-73
2023/08/14 03:28:05;;;;;;;6.30;4.30;;;17.60;99.90;;;17.32;81.69;100916.13;5054676;28;20638;-73
2023/08/14 03:30:43;;;;;;;6.40;4.67;;;17.70;99.90;;;17.39;81.11;100909.72;5055042;28;20185;-73
2023/08/14 03:33:15;;;;;;;11.13;5.27;;;17.70;99.90;;;17.44;81.04;100911.81;5054386;28;20228;-74
2023/08/14 03:35:47;;;;;;;10.50;4.50;;;17.80;99.90;;;17.37;81.81;100906.38;5054521;28;20284;-74
2023/08/14 03:38:19;;;;;;;10.20;4.70;;;17.70;99.90;;;17.39;81.10;100901.59;5054513;28;20226;-74
2023/08/14 03:40:52;;;;;;;6.23;4.67;;;17.70;99.90;;;17.42;81.24;100909.31;5054027;28;20680;-74
2023/08/14 03:43:25;;;;;;;8.60;4.60;;;17.80;99.90;;;17.40;81.16;100913.25;5053984;28;20715;-74
2023/08/14 03:45:58;;;;;;;8.60;4.40;;;17.70;99.90;;;17.39;81.76;100904.31;5054280;28;20186;-74
2023/08/14 03:48:30;;;;;;;6.57;4.07;;;17.70;99.90;;;17.39;81.79;100907.03;5054273;28;20247;-73
2023/08/14 03:51:04;;;;;;;5.67;4.40;;;17.70;99.90;;;17.40;81.61;100913.25;5054288;28;20194;-74
2023/08/14 03:53:36;;;;;;;7.17;4.30;;;17.80;99.90;;;17.39;81.42;100907.03;5053830;28;20659;-73
2023/08/14 03:56:09;;;;;;;5.80;4.37;;;17.80;99.90;;;17.38;81.60;100899.91;5054660;28;20210;-73
2023/08/14 03:58:43;;;;;;;7.87;4.40;;;17.70;99.90;;;17.37;81.12;100900.09;5054260;28;20190;-73
2023/08/14 04:01:15;;;;;;;8.50;4.53;;;17.70;99.90;;;17.31;81.49;100892.81;5054661;28;20305;-73
2023/08/14 04:03:47;;;;;;;7.13;4.37;;;17.60;99.90;;;17.29;80.97;100895.72;5053534;28;20700;-73
2023/08/14 04:06:19;;;;;;;6.00;3.67;;;17.60;99.90;;;17.29;81.22;100893.03;5054266;28;20282;-73
2023/08/14 04:08:52;;;;;;;5.53;3.77;;;17.60;99.90;;;17.27;80.97;100895.06;5054023;28;20186;-73
2023/08/14 04:11:24;;;;;;;6.50;4.03;;;17.60;99.90;;;17.23;81.00;100891.09;5053652;28;20712;-73
2023/08/14 04:13:57;;;;;;;7.93;4.10;;;17.60;99.90;;;17.20;80.95;100895.03;5053683;28;20316;-73
2023/08/14 04:16:43;;;;;;;5.50;3.87;;;17.50;99.90;;;17.16;80.83;100898.34;5054048;28;20190;-73
2023/08/14 04:19:18;;;;;;;9.07;3.70;;;17.50;99.90;;;17.20;80.26;100905.03;5053405;28;20225;-73
2023/08/14 04:21:51;;;;;;;7.43;3.83;;;17.50;99.90;;;17.19;80.47;100906.06;5053581;28;20210;-73
2023/08/14 04:24:23;;;;;;;6.80;3.73;;;17.60;99.90;;;17.15;81.06;100896.69;5053269;28;20312;-74
2023/08/14 04:26:55;;;;;;;8.67;3.70;;;17.50;99.90;;;17.17;80.56;100897.31;5053272;28;20225;-73
2023/08/14 04:29:28;;;;;;;4.70;3.60;;;17.50;99.90;;;17.17;80.89;100886.47;5053336;28;20233;-74
2023/08/14 04:32:00;;;;;;;7.43;3.97;;;17.50;99.90;;;17.15;80.68;100891.28;5053484;28;20213;-74
2023/08/14 04:34:32;;;;;;;7.07;3.80;;;17.50;99.90;;;17.17;81.14;100892.72;5052925;28;20221;-74
2023/08/14 04:37:04;;;;;;;7.23;3.90;;;17.50;99.90;;;17.13;81.60;100893.31;5053493;28;20190;-74
2023/08/14 04:39:36;;;;;;;5.60;3.80;;;17.50;99.90;;;17.16;80.78;100892.91;5053467;28;20297;-73
2023/08/14 04:42:08;;;;;;;7.50;4.17;;;17.50;99.90;;;17.17;81.53;100891.91;5053434;28;20268;-73
2023/08/14 04:44:41;;;;;;;8.47;3.90;;;17.50;99.90;;;17.18;81.18;100888.16;5053424;28;20222;-73
2023/08/14 04:47:13;;;;;;;8.33;4.50;;;17.60;99.90;;;17.16;81.43;100893.75;5052964;28;20256;-73
2023/08/14 04:49:45;;;;;;;7.60;3.70;;;17.50;99.90;;;17.14;81.38;100882.31;5053060;28;20650;-73
2023/08/14 04:52:17;;;;;;;4.60;3.57;;;17.50;99.90;;;17.16;81.70;100898.34;5052983;28;20222;-74
2023/08/14 04:54:50;;;;;;;7.57;4.30;;;17.50;99.90;;;17.16;81.56;100901.03;5053374;28;20190;-73
2023/08/14 04:57:22;;;;;;;6.80;3.80;;;17.50;99.90;;;17.12;82.41;100892.47;5053349;28;20285;-73
2023/08/14 04:59:55;;;;;;;4.50;3.40;;;17.50;99.90;;;17.13;82.10;100888.75;5053311;28;20225;-74
2023/08/14 05:02:28;;;;;;;8.67;4.53;;;17.50;99.90;;;17.13;83.16;100904.13;5053638;28;20556;-73
2023/08/14 05:05:00;;;;;;;7.63;3.97;;;17.60;99.90;;;17.13;82.65;100896.03;5053313;28;20216;-74
2023/08/14 05:07:32;;;;;;;6.60;4.37;;;17.50;99.90;;;17.15;83.02;100896.69;5052893;28;20585;-74
2023/08/14 05:10:03;;;;;;;4.23;3.50;;;17.50;99.90;;;17.15;82.88;100892.09;5052918;28;20191;-74
2023/08/14 05:12:35;;;;;;;8.40;3.70;;;17.50;99.90;;;17.17;82.54;100894.59;5053099;28;20313;-73
2023/08/14 05:15:09;;;;;;;6.73;3.60;;;17.60;99.90;;;17.17;82.98;100884.63;5053219;28;20224;-73
2023/08/14 05:17:41;;;;;;;6.33;3.10;;;17.60;99.90;;;17.16;83.16;100892.91;5053247;28;20252;-73
2023/08/14 05:20:16;;;;;;;7.77;3.93;;;17.50;99.90;;;17.17;83.13;100905.41;5053265;28;20213;-73
2023/08/14 05:22:48;;;;;;;6.60;3.97;;;17.60;99.90;;;17.17;82.86;100897.31;5053026;28;20229;-74
2023/08/14 05:25:20;;;;;;;5.20;3.70;;;17.60;99.90;;;17.16;83.31;100893.75;5053086;28;20298;-73
2023/08/14 05:27:52;;;;;;;5.93;3.43;;;17.60;99.90;;;17.17;83.08;100900.00;5053051;28;20229;-74
2023/08/14 05:30:25;;;;;;;5.93;3.47;;;17.60;99.90;;;17.20;83.64;100900.44;5052988;28;20248;-74
2023/08/14 05:32:55;;;;;;;7.07;3.70;;;17.60;99.90;;;17.20;83.22;100903.16;5052811;28;20249;-74
2023/08/14 05:35:29;;;;;;;6.77;3.63;;;17.60;99.90;;;17.21;83.20;100894.00;5052851;28;20214;-74
2023/08/14 05:38:03;;;;;;;6.50;3.33;;;17.70;99.90;;;17.23;83.32;100889.22;5052888;28;20218;-73
2023/08/14 05:40:34;;;;;;;5.27;3.57;;;17.70;99.90;;;17.22;83.07;100892.97;5052934;28;20198;-74
2023/08/14 05:43:07;;;;;;;6.07;3.77;;;17.70;99.90;;;17.21;83.53;100890.47;5052781;28;20234;-74
2023/08/14 05:45:46;;;;;;;8.50;3.53;;;17.70;99.90;;;17.22;83.03;100875.91;5054143;28;20281;-74
2023/08/14 05:48:21;;;;;;;5.93;3.53;;;17.70;99.90;;;17.26;83.84;100887.97;5056171;28;20315;-74
2023/08/14 05:50:55;;;;;;;7.10;3.33;;;17.70;99.90;;;17.27;83.60;100889.66;5056534;28;20217;-74
2023/08/14 05:53:27;;;;;;;10.67;3.60;;;17.80;99.90;;;17.31;83.87;100873.84;5056084;28;20668;-74
2023/08/14 05:55:58;;;;;;;4.90;3.40;;;17.80;99.90;;;17.33;84.14;100883.44;5056089;28;20285;-74
2023/08/14 05:58:30;;;;;;;4.77;3.37;;;17.80;99.90;;;17.37;84.31;100884.72;5056347;28;20194;-74
2023/08/14 06:01:04;;;;;;;7.23;3.60;;;17.80;99.90;;;17.40;84.17;100889.72;5056314;28;20218;-74
2023/08/14 06:03:38;;;;;;;6.13;3.37;;;17.90;99.90;;;17.43;84.95;100883.91;5055238;28;20238;-74
2023/08/14 06:06:16;;;;;;;6.97;3.90;;;18.00;99.90;;;17.45;83.72;100879.13;5055528;28;20190;-74
2023/08/14 06:08:48;;;;;;;7.33;4.13;;;18.00;99.90;;;17.47;83.93;100881.63;5054266;28;20187;-74
2023/08/14 06:11:20;;;;;;;6.60;3.73;;;18.10;99.90;;;17.49;84.14;100880.41;5054095;28;20220;-74
2023/08/14 06:13:52;;;;;;;7.40;3.77;;;18.00;99.90;;;17.53;84.54;100873.56;5056246;28;20222;-77
2023/08/14 06:16:25;;;;;;;9.30;4.20;;;18.20;99.90;;;17.56;85.29;100881.31;5057256;28;20637;-78
2023/08/14 06:18:57;;;;;;;8.40;3.67;;;18.10;99.90;;;17.59;85.01;100880.91;5056697;28;20234;-78
2023/08/14 06:21:29;;;;;;;5.33;3.67;;;18.10;99.90;;;17.62;84.79;100888.63;5056874;28;20244;-78
2023/08/14 06:24:01;;;;;;;7.10;4.00;;;18.20;99.90;;;17.65;84.01;100899.03;5057108;28;20230;-78
2023/08/14 06:26:33;;;;;;;5.73;3.77;;;18.20;99.90;;;17.70;84.87;100893.88;5057209;28;20289;-78
2023/08/14 06:29:05;;;;;;;4.47;3.70;;;18.30;99.90;;;17.76;84.41;100903.03;5058786;28;20544;-78
2023/08/14 06:31:38;;;;;;;9.50;4.03;;;18.30;99.90;;;17.82;84.80;100914.91;5058629;28;20285;-78
2023/08/14 06:34:10;;;;;;;8.30;3.80;;;18.30;99.90;;;17.88;84.39;100905.97;5056646;28;20317;-78
2023/08/14 06:36:43;;;;;;;10.83;4.30;;;18.40;99.90;;;17.94;84.24;100907.88;5056868;28;20218;-78
2023/08/14 06:39:15;;;;;;;10.33;3.70;;;18.50;99.90;;;18.02;84.10;100910.41;5056900;28;20190;-77
2023/08/14 06:41:47;;;;;;;12.87;3.87;;;18.60;99.90;;;18.08;84.69;100904.19;5056482;28;20195;-77
2023/08/14 06:44:20;;;;;;;8.73;4.40;;;18.70;99.90;;;18.13;84.61;100902.50;5056279;28;20757;-77
2023/08/14 06:46:53;;;;;;;18.40;4.43;;;18.70;99.90;;;18.17;83.60;100892.94;5056374;28;20272;-77
2023/08/14 06:49:25;;;;;;;13.77;3.60;;;18.80;99.90;;;18.23;83.91;100893.97;5055949;28;20190;-77
2023/08/14 06:51:58;;;;;;;10.67;3.33;;;18.80;99.90;;;18.27;83.76;100887.09;5056226;28;20198;-77
2023/08/14 06:54:30;;;;;;;10.87;3.70;;;18.90;99.90;;;18.33;83.18;100896.28;5055914;28;20257;-77
2023/08/14 06:57:02;;;;;;;7.33;3.40;;;18.90;99.90;;;18.35;83.12;100895.06;5055474;28;20194;-77
2023/08/14 06:59:35;;;;;;;9.97;3.40;;;19.00;99.90;;;18.43;81.59;100888.56;5056062;28;20225;-77
2023/08/14 07:02:09;;;;;;;5.40;3.57;;;19.10;99.90;;;18.48;80.80;100895.06;5055557;28;20665;-77
2023/08/14 07:04:41;;;;;;;5.83;3.10;;;19.20;99.90;;;18.54;81.69;100890.69;5055768;28;20190;-77
2023/08/14 07:07:13;;;;;;;5.13;2.90;;;19.10;99.90;;;18.56;80.54;100892.16;5055572;28;20281;-78
2023/08/14 07:09:44;;;;;;;4.70;3.03;;;19.20;99.90;;;18.61;79.93;100876.09;5055735;28;20289;-78
2023/08/14 07:12:17;;;;;;;4.93;2.87;;;19.20;99.90;;;18.69;80.81;100878.59;5055440;28;20483;-78
2023/08/14 07:14:50;;;;;;;6.87;3.10;;;19.30;99.90;;;18.76;80.27;100877.75;5056427;28;20285;-78
2023/08/14 07:17:23;;;;;;;3.67;3.17;;;19.40;99.90;;;18.84;80.59;100872.09;5056786;28;20193;-78
2023/08/14 07:19:55;;;;;;;6.20;2.90;;;19.50;99.90;;;18.84;80.04;100878.38;5054838;28;20190;-77
2023/08/14 07:22:27;;;;;;;5.97;2.70;;;19.50;99.90;;;18.91;79.35;100879.19;5055081;28;20190;-78
2023/08/14 07:25:00;;;;;;;4.07;2.60;;;19.50;99.90;;;18.99;80.21;100876.25;5055339;28;20197;-78
2023/08/14 07:27:32;;;;;;;5.03;2.40;;;19.70;99.90;;;19.05;80.00;100888.97;5055183;28;20233;-78
2023/08/14 07:30:05;;;;;;;10.10;3.30;;;19.70;99.90;;;19.12;80.62;100892.50;5056822;28;20241;-78
2023/08/14 07:32:38;;;;;;;5.33;2.90;;;19.70;99.90;;;19.24;79.69;100881.84;5056064;28;20226;-78
2023/08/14 07:35:12;;;;;;;5.37;2.63;;;19.90;99.90;;;19.30;78.36;100882.88;5056025;28;20244;-78
2023/08/14 07:37:43;;;;;;;6.33;2.33;;;20.00;99.90;;;19.46;76.33;100883.25;5054660;28;20255;-77
2023/08/14 07:40:17;;;;;;;5.30;2.43;;;20.20;99.90;;;19.48;77.00;100878.47;5054687;28;20291;-77
2023/08/14 07:42:48;;;;;;;6.17;3.00;;;20.20;99.90;;;19.56;78.49;100883.63;5054375;28;20618;-76
2023/08/14 07:45:20;;;;;;;4.60;2.83;;;20.20;99.90;;;19.81;74.07;100885.59;5054806;28;20285;-76
2023/08/14 07:47:54;;;;;;;5.57;2.67;;;20.50;99.90;;;19.84;76.78;100868.88;5053976;28;20214;-76
2023/08/14 07:50:26;;;;;;;5.17;2.70;;;20.50;99.90;;;19.87;77.53;100873.84;5054445;28;20186;-76
2023/08/14 07:52:58;;;;;;;8.00;2.80;;;20.50;99.90;;;19.92;75.17;100871.34;5054412;28;20226;-76
2023/08/14 07:55:29;;;;;;;6.00;3.27;;;20.50;99.90;;;19.95;76.15;100871.72;5054288;28;20214;-76
2023/08/14 07:58:02;;;;;;;6.07;2.63;;;20.60;99.90;;;19.97;75.55;100857.91;5054215;28;20248;-76
2023/08/14 08:00:35;;;;;;;8.03;3.20;;;20.60;99.90;;;20.07;75.58;100858.25;5054485;28;20201;-76
2023/08/14 08:03:09;;;;;;;3.53;2.50;;;20.70;99.90;;;20.12;76.95;100853.00;5054049;28;20326;-76
2023/08/14 08:05:41;;;;;;;6.90;2.67;;;20.80;99.90;;;20.24;76.43;100867.56;5054088;28;20277;-76
2023/08/14 08:08:13;;;;;;;4.90;2.70;;;21.00;99.90;;;20.36;74.57;100868.56;5053633;28;20221;-76
2023/08/14 08:10:45;;;;;;;5.07;2.50;;;21.00;99.90;;;20.43;75.22;100858.47;5053980;28;20201;-77
2023/08/14 08:13:17;;;;;;;4.53;2.60;;;21.10;99.90;;;20.51;75.29;100860.06;5053883;28;20254;-77
2023/08/14 08:15:48;;;;;;;5.80;2.90;;;21.20;99.90;;;20.67;72.09;100862.22;5053676;28;20722;-77
2023/08/14 08:18:21;;;;;;;6.27;2.70;;;21.30;99.90;;;20.94;71.10;100870.97;5054250;28;20194;-77
2023/08/14 08:20:53;;;;;;;4.23;2.40;;;21.60;99.90;;;21.09;69.36;100874.16;5053576;28;20559;-77
2023/08/14 08:23:25;;;;;;;3.63;2.57;;;21.70;99.90;;;21.19;68.68;100869.91;5053345;28;20673;-77
2023/08/14 08:25:57;;;;;;;5.17;2.67;;;21.90;99.90;;;21.51;66.83;100878.72;5053746;28;20251;-77
2023/08/14 08:28:29;;;;;;;4.43;2.83;;;22.10;99.90;;;21.45;67.55;100881.53;5053361;28;20660;-77
2023/08/14 08:31:02;;;;;;;4.97;2.57;;;22.10;99.90;;;21.47;68.08;100874.78;5053629;28;20281;-77
2023/08/14 08:33:36;;;;;;;5.63;2.50;;;22.00;99.90;;;21.43;70.77;100868.16;5053831;28;20316;-77
2023/08/14 08:36:09;;;;;;;4.90;2.93;;;22.00;99.90;;;21.59;69.03;100875.69;5053563;28;20221;-77
2023/08/14 08:38:41;;;;;;;3.63;2.83;;;22.10;99.90;;;21.55;70.81;100885.38;5053431;28;20700;-77
2023/08/14 08:41:22;;;;;;;3.93;2.47;;;22.20;99.90;;;21.70;69.54;100871.38;5053528;28;20224;-77
2023/08/14 08:44:00;;;;;;;3.50;2.60;;;22.40;99.90;;;21.70;70.87;100874.94;5053366;28;20232;-77
2023/08/14 08:46:35;;;;;;;3.83;2.67;;;22.40;99.90;;;21.77;69.43;100877.56;5053278;28;20308;-77
2023/08/14 08:49:10;;;;;;;4.33;2.73;;;22.40;99.90;;;21.80;70.07;100865.34;5053130;28;20628;-77
2023/08/14 08:51:42;;;;;;;5.83;3.10;;;22.40;99.90;;;21.95;69.66;100868.53;5053439;28;20182;-77
2023/08/14 08:54:16;;;;;;;4.50;3.00;;;22.50;99.90;;;22.01;68.85;100864.88;5053364;28;20226;-76
2023/08/14 08:56:48;;;;;;;4.07;3.00;;;22.60;99.90;;;22.03;69.83;100860.03;5053415;28;20218;-76
2023/08/14 08:59:21;;;;;;;3.20;2.70;;;22.60;99.90;;;22.19;68.61;100856.66;5053376;28;20284;-76
2023/08/14 09:01:53;;;;;;;4.73;2.97;;;22.80;99.90;;;22.19;70.15;100859.38;5053410;28;20194;-76
2023/08/14 09:04:30;;;;;;;4.47;2.57;;;22.90;99.90;;;22.26;69.43;100867.44;5053189;28;20314;-76
2023/08/14 09:07:02;;;;;;;5.20;3.27;;;22.90;99.90;;;22.47;66.65;100856.78;5053316;28;20190;-76
2023/08/14 09:09:34;;;;;;;3.87;2.77;;;23.00;99.90;;;22.55;67.60;100859.19;5053134;28;20206;-76
2023/08/14 09:12:06;;;;;;;4.00;2.63;;;23.20;99.90;;;22.60;67.11;100862.03;5053228;28;20245;-77
2023/08/14 09:14:44;;;;;;;3.80;3.30;;;23.20;99.90;;;22.64;67.48;100851.47;5052925;28;20617;-76
2023/08/14 09:17:17;;;;;;;4.27;3.00;;;23.20;99.90;;;22.68;66.63;100869.06;5052927;28;20662;-76
2023/08/14 09:19:50;;;;;;;7.20;3.00;;;23.30;99.90;;;22.73;68.29;100855.56;5053233;28;20291;-76
2023/08/14 09:22:22;;;;;;;6.00;3.00;;;23.30;99.90;;;22.76;67.03;100866.00;5056909;28;20237;-78
2023/08/14 09:24:54;;;;;;;4.63;2.70;;;23.30;99.90;;;22.83;65.21;100855.78;5057021;28;20245;-77
2023/08/14 09:27:28;;;;;;;9.30;3.20;;;23.40;99.90;;;22.85;68.33;100859.09;5058033;28;20194;-77
2023/08/14 09:30:01;;;;;;;4.83;2.83;;;23.40;99.90;;;22.85;67.73;100861.00;5057364;28;20280;-77
2023/08/14 09:32:33;;;;;;;7.80;3.00;;;23.40;99.90;;;22.89;65.90;100854.84;5056951;28;20299;-77
2023/08/14 09:35:08;;;;;;;9.73;3.30;;;23.40;99.90;;;22.92;67.38;100859.81;5057052;28;20197;-77
2023/08/14 09:37:40;;;;;;;5.63;2.77;;;23.40;99.90;;;22.95;67.45;100859.34;5056618;28;20280;-77
2023/08/14 09:40:15;;;;;;;4.40;2.63;;;23.50;99.90;;;23.00;68.20;100850.44;5056865;28;20277;-77
2023/08/14 09:42:48;;;;;;;7.07;2.80;;;23.50;99.90;;;23.04;66.87;100857.09;5056772;28;20226;-77
2023/08/14 09:45:23;;;;;;;6.07;3.03;;;23.60;99.90;;;23.10;67.54;100858.84;5056829;28;20214;-77
2023/08/14 09:48:00;;;;;;;4.90;3.00;;;23.60;99.90;;;23.22;66.69;100854.19;5056555;28;20213;-77
2023/08/14 09:50:35;;;;;;;4.17;2.80;;;23.70;99.90;;;23.30;63.13;100851.09;5056795;28;20194;-77
2023/08/14 09:53:07;;;;;;;4.87;2.93;;;23.80;99.90;;;23.39;63.83;100860.56;5056584;28;20261;-77
2023/08/14 09:55:40;;;;;;;4.83;3.67;;;23.80;99.90;;;23.49;62.60;100862.75;5056582;28;20183;-76
2023/08/14 09:58:12;;;;;;;4.40;3.00;;;23.90;99.90;;;23.54;62.44;100862.81;5056421;28;20248;-76
2023/08/14 10:00:44;;;;;;;4.00;2.90;;;24.00;99.90;;;23.61;63.71;100861.63;5056477;28;20213;-76
2023/08/14 10:03:17;;;;;;;6.07;3.13;;;24.10;99.90;;;23.66;65.80;100850.78;5056089;28;20222;-76
2023/08/14 10:05:50;;;;;;;5.80;3.03;;;24.10;99.90;;;23.75;64.27;100853.97;5056529;28;20218;-78
2023/08/14 10:08:23;;;;;;;7.93;3.00;;;24.20;99.90;;;23.91;64.30;100849.59;5056414;28;20232;-77
2023/08/14 10:10:56;;;;;;;4.63;3.10;;;24.40;99.90;;;24.12;61.79;100851.63;5055916;28;20702;-77
2023/08/14 10:13:55;;;;;;;5.23;2.93;;;24.60;99.90;;;24.29;58.61;100852.53;5055750;28;20556;-77
2023/08/14 10:16:34;;;;;;;5.13;2.90;;;24.80;99.90;;;24.34;58.10;100847.16;5056183;28;20201;-77
2023/08/14 10:19:10;;;;;;;5.03;3.13;;;24.80;99.90;;;24.46;59.63;100847.88;5056082;28;20190;-77
2023/08/14 10:21:45;;;;;;;4.20;3.10;;;25.00;99.90;;;24.57;59.81;100848.88;5056039;28;20664;-77
2023/08/14 10:24:19;;;;;;;4.20;2.87;;;25.10;99.90;;;24.63;59.45;100851.44;5055862;28;20234;-77
2023/08/14 10:26:51;;;;;;;5.65;2.60;;;25.10;99.90;;;24.61;60.84;100844.56;5055964;28;20541;-77
2023/08/14 10:29:23;;;;;;;5.17;3.20;;;25.10;99.90;;;24.67;59.42;100852.59;5055923;28;20226;-77
2023/08/14 10:31:56;;;;;;;6.37;2.70;;;25.10;99.90;;;24.65;58.52;100849.31;5055123;28;20281;-77
2023/08/14 10:34:30;;;;;;;6.63;3.10;;;25.00;99.90;;;24.66;60.27;100850.94;5055843;28;20318;-78
2023/08/14 10:37:03;;;;;;;5.47;3.00;;;25.10;99.90;;;24.65;59.79;100849.31;5055719;28;20189;-77